Strona główna
METAR-TAF:

METAR-TAF

Lotnisko :

Port lotniczy Psków

Psków, Rosja

Szerokość geograficzna: 57-47-06N, Długość geograficzna: 028-23-54E, wysokość: 47 m

Aktualna obserwacja pogody

Raport powstał 18 minut temu, godzina 01:00 UTC
Wiatr 4 kt od północno-północny wschód
Temperatura 10°C
Wilgotność 62%
Ciśnienie 1020 hPa
Widzialność 10 km lub więcej
Brak chmur poniżej 1500 m i brak chmur cumulonimbus

METAR: ULOO 180100Z 03002MPS CAVOK 10/03 Q1020 NOSIG RMK QFE761

czas: 04:18 (01:18 UTC)

Prognoza

Raport powstał 2 godziny i 24 minut temu, godzina 22:54 UTC
Prognoza ważna od 18 godzina 00 UTC do 18 godzina 09 UTC
Wiatr 6 kt od wschodnio-północny wschód
Widzialność 10 km lub więcej
Rozproszone chmury na wysokości 4000 ft
Stopniowe zmiany
od 18 godzina 04 UTC do 18 godzina 06 UTC
Wiatr 10 kt od wschodnio-południowy wschód

TAF: ULOO 172254Z 1800/1809 06003MPS 9999 SCT040 BECMG 1804/1806 12005MPS

Obserwacja i prognoza pogody dla ponad 4000 lotnisk (raport METAR i TAF).

Dostępne stacje oznaczono żółtymi i czerwonymi punktami na mapie.

Najedź kursorem aby zobaczyć nazwę stacji.

Kliknij aby zobaczyć obserwacje i prognozy pogody.

Aby zmienić mapę: kliknij na zielony przycisk z czarnym krzyżykiem, aby powiększyć; na zielony przycisk z myślnikiem, aby pomniejszyć; na zielone strzałki, aby przejść do map sąsiednich.


METAR-TAF: